createdAt,value
2019-01-02T00:01:18.267Z,11.33
2019-01-02T00:03:46.779Z,11.33
2019-01-02T00:06:15.538Z,10.53
2019-01-02T00:08:44.171Z,11.97
2019-01-02T00:11:12.746Z,11.13
2019-01-02T00:13:42.853Z,10.70
2019-01-02T00:16:11.283Z,12.07
2019-01-02T00:18:41.589Z,11.20
2019-01-02T00:21:10.037Z,11.20
2019-01-02T00:23:38.510Z,12.00
2019-01-02T00:26:07.032Z,11.47
2019-01-02T00:28:35.501Z,11.60
2019-01-02T00:31:05.757Z,12.13
2019-01-02T00:33:34.779Z,11.73
2019-01-02T00:36:05.207Z,10.67
2019-01-02T00:38:33.722Z,11.70
2019-01-02T00:41:02.381Z,12.60
2019-01-02T00:43:30.856Z,11.50
2019-01-02T00:46:01.147Z,11.20
2019-01-02T00:48:29.579Z,11.30
2019-01-02T00:51:00.014Z,11.33
2019-01-02T00:53:28.469Z,12.33
2019-01-02T00:55:58.680Z,11.93
2019-01-02T00:58:27.129Z,12.13
2019-01-02T01:00:57.715Z,11.50
2019-01-02T01:03:26.241Z,10.80
2019-01-02T01:05:56.532Z,12.07
2019-01-02T01:08:25.311Z,11.27
2019-01-02T01:10:55.662Z,11.77
2019-01-02T01:13:24.135Z,12.53
2019-01-02T01:15:54.331Z,11.93
2019-01-02T01:18:23.034Z,10.40
2019-01-02T01:20:53.302Z,10.20
2019-01-02T01:23:21.783Z,10.70
2019-01-02T01:25:50.291Z,10.93
2019-01-02T01:28:18.822Z,11.17
2019-01-02T01:30:47.362Z,11.17
2019-01-02T01:33:16.496Z,11.20
2019-01-02T01:35:44.979Z,11.77
2019-01-02T01:38:13.415Z,11.07
2019-01-02T01:40:43.609Z,11.87
2019-01-02T01:43:12.172Z,11.97
2019-01-02T01:45:42.524Z,12.43
2019-01-02T01:48:11.059Z,11.43
2019-01-02T01:50:39.577Z,11.67
2019-01-02T01:53:09.768Z,11.20
2019-01-02T01:55:38.346Z,10.87
2019-01-02T01:58:06.874Z,11.20
2019-01-02T02:00:35.343Z,10.80
2019-01-02T02:03:03.819Z,11.70
2019-01-02T02:05:34.115Z,11.57
2019-01-02T02:08:02.690Z,10.77
2019-01-02T02:10:31.275Z,11.17
2019-01-02T02:12:59.932Z,11.40
2019-01-02T02:15:28.467Z,11.83
2019-01-02T02:17:58.754Z,11.10
2019-01-02T02:20:27.301Z,11.10
2019-01-02T02:22:55.830Z,10.70
2019-01-02T02:25:26.016Z,11.83
2019-01-02T02:27:54.538Z,13.50
2019-01-02T02:30:24.731Z,10.47
2019-01-02T02:32:53.248Z,10.70
2019-01-02T02:35:21.825Z,10.67
2019-01-02T02:37:52.013Z,11.77
2019-01-02T02:40:20.553Z,9.50
2019-01-02T02:42:49.099Z,10.67
2019-01-02T02:45:17.969Z,10.20
2019-01-02T02:47:46.836Z,10.00
2019-01-02T02:50:17.048Z,10.60
2019-01-02T02:52:47.358Z,10.30
2019-01-02T02:55:56.093Z,12.47
2019-01-02T02:58:26.472Z,10.50
2019-01-02T03:00:56.750Z,9.70
2019-01-02T03:03:26.967Z,9.90
2019-01-02T03:05:55.670Z,10.13
2019-01-02T03:08:24.244Z,9.83
2019-01-02T03:10:54.409Z,10.57
2019-01-02T03:13:24.695Z,10.73
2019-01-02T03:15:54.896Z,11.80
2019-01-02T03:18:23.910Z,10.33
2019-01-02T03:20:52.708Z,9.50
2019-01-02T03:23:21.155Z,10.03
2019-01-02T03:25:49.719Z,9.57
2019-01-02T03:28:19.984Z,9.43
2019-01-02T03:30:50.251Z,11.97
2019-01-02T03:33:20.515Z,9.93
2019-01-02T03:35:49.327Z,9.87
2019-01-02T03:38:17.781Z,10.00
2019-01-02T03:40:46.255Z,9.17
2019-01-02T03:43:14.897Z,9.70
2019-01-02T03:45:43.409Z,9.00
2019-01-02T03:48:11.916Z,9.30
2019-01-02T03:50:40.497Z,10.00
2019-01-02T03:53:09.012Z,9.33
2019-01-02T03:55:37.622Z,9.50
2019-01-02T03:58:06.104Z,9.40
2019-01-02T04:00:34.646Z,9.10
2019-01-02T04:03:03.143Z,9.20
2019-01-02T04:05:31.589Z,9.37
2019-01-02T04:08:40.079Z,9.20
2019-01-02T04:11:08.580Z,9.17
2019-01-02T04:13:37.103Z,8.90
2019-01-02T04:16:05.564Z,9.23
2019-01-02T04:18:34.044Z,8.80
2019-01-02T04:21:02.595Z,8.90
2019-01-02T04:23:31.135Z,8.33
2019-01-02T04:25:59.703Z,9.10
2019-01-02T04:28:28.232Z,8.63
2019-01-02T04:30:56.775Z,8.53
2019-01-02T04:33:25.241Z,8.57
2019-01-02T04:35:53.680Z,8.33
2019-01-02T04:38:22.045Z,8.50
2019-01-02T04:40:50.839Z,8.63
2019-01-02T04:43:19.531Z,9.07
2019-01-02T04:45:48.101Z,8.20
2019-01-02T04:48:16.708Z,8.20
2019-01-02T04:50:45.210Z,8.90
2019-01-02T04:53:13.733Z,9.10
2019-01-02T04:55:42.310Z,8.53
2019-01-02T04:58:10.802Z,8.50
2019-01-02T05:00:39.512Z,9.43
2019-01-02T05:03:07.978Z,8.87
2019-01-02T05:05:36.462Z,8.47
2019-01-02T05:08:04.993Z,8.93
2019-01-02T05:10:33.541Z,8.67
2019-01-02T05:13:02.430Z,8.50
2019-01-02T05:15:30.943Z,8.23
2019-01-02T05:17:59.389Z,8.00
2019-01-02T05:20:27.872Z,8.47
2019-01-02T05:22:56.451Z,8.50
2019-01-02T05:25:24.884Z,8.93
2019-01-02T05:27:53.467Z,8.80
2019-01-02T05:30:22.222Z,8.67
2019-01-02T05:32:50.685Z,8.70
2019-01-02T05:35:19.250Z,9.57
2019-01-02T05:37:47.719Z,7.90
2019-01-02T05:40:56.210Z,8.80
2019-01-02T05:43:25.084Z,8.90
2019-01-02T05:45:53.533Z,8.20
2019-01-02T05:48:22.058Z,8.50
2019-01-02T05:50:50.945Z,8.60
2019-01-02T05:53:19.404Z,8.10
2019-01-02T05:55:47.909Z,8.40
2019-01-02T05:58:16.405Z,8.73
2019-01-02T06:00:44.834Z,8.90
2019-01-02T06:03:13.290Z,8.83
2019-01-02T06:05:41.832Z,8.70
2019-01-02T06:08:10.293Z,8.80
2019-01-02T06:10:38.849Z,8.53
2019-01-02T06:13:07.400Z,8.37
2019-01-02T06:15:35.948Z,8.77
2019-01-02T06:18:04.428Z,8.40
2019-01-02T06:20:32.837Z,8.70
2019-01-02T06:23:01.392Z,8.20
2019-01-02T06:25:29.861Z,9.23
2019-01-02T06:27:58.366Z,8.80
2019-01-02T06:30:26.831Z,8.67
2019-01-02T06:32:55.652Z,8.40
2019-01-02T06:35:24.243Z,8.07
2019-01-02T06:37:53.133Z,9.10
2019-01-02T06:40:21.703Z,8.70
2019-01-02T06:42:50.334Z,8.80
2019-01-02T06:45:18.926Z,8.60
2019-01-02T06:47:47.467Z,9.00
2019-01-02T06:50:56.021Z,8.60
2019-01-02T06:53:24.635Z,9.00
2019-01-02T06:55:53.142Z,8.80
2019-01-02T06:58:21.723Z,9.00
2019-01-02T07:01:30.192Z,8.90
2019-01-02T07:03:58.792Z,8.40
2019-01-02T07:06:27.326Z,8.97
2019-01-02T07:08:56.126Z,8.63
2019-01-02T07:11:24.556Z,9.00
2019-01-02T07:13:53.391Z,8.83
2019-01-02T07:16:21.844Z,9.00
2019-01-02T07:18:50.345Z,9.17
2019-01-02T07:21:18.814Z,8.60
2019-01-02T07:23:47.385Z,9.43
2019-01-02T07:26:15.973Z,8.40
2019-01-02T07:28:44.415Z,8.70
2019-01-02T07:31:13.009Z,8.70
2019-01-02T07:34:21.465Z,8.63
2019-01-02T07:37:28.707Z,8.67
2019-01-02T07:40:37.214Z,8.87
2019-01-02T07:43:44.310Z,9.10
2019-01-02T07:46:51.510Z,8.57
2019-01-02T07:49:58.694Z,9.30
2019-01-02T07:53:07.178Z,8.63
2019-01-02T07:56:15.704Z,10.07
2019-01-02T07:59:24.188Z,9.73
2019-01-02T08:02:32.639Z,8.50
2019-01-02T08:05:39.856Z,8.47
2019-01-02T08:08:47.067Z,9.07
2019-01-02T08:11:55.513Z,9.50
2019-01-02T08:15:03.735Z,9.80
2019-01-02T08:18:12.244Z,8.90
2019-01-02T08:21:19.722Z,8.50
2019-01-02T08:24:28.383Z,8.00
2019-01-02T08:27:36.813Z,9.03
2019-01-02T08:30:45.381Z,8.40
2019-01-02T08:33:53.798Z,8.40
2019-01-02T08:37:02.279Z,8.87
2019-01-02T08:40:11.046Z,10.00
2019-01-02T08:43:19.582Z,9.57
2019-01-02T08:46:26.804Z,9.10
2019-01-02T08:49:35.313Z,9.10
2019-01-02T08:52:42.524Z,8.40
2019-01-02T08:55:50.983Z,8.00
2019-01-02T08:58:59.508Z,8.77
2019-01-02T09:02:06.730Z,9.00
2019-01-02T09:05:13.888Z,8.57
2019-01-02T09:08:22.724Z,8.30
2019-01-02T09:11:31.232Z,10.17
2019-01-02T09:23:41.347Z,8.43
2019-01-02T09:26:48.576Z,8.20
2019-01-02T09:29:57.314Z,8.20
2019-01-02T09:33:04.461Z,8.33
2019-01-02T09:36:13.220Z,7.83
2019-01-02T09:39:20.451Z,7.67
2019-01-02T09:42:28.920Z,8.30
2019-01-02T09:45:37.423Z,8.50
2019-01-02T09:48:45.881Z,9.03
2019-01-02T09:51:53.370Z,9.17
2019-01-02T09:55:01.946Z,8.10
2019-01-02T09:58:10.884Z,8.47
2019-01-02T10:01:19.411Z,8.07
2019-01-02T10:04:27.902Z,9.37
2019-01-02T10:07:36.351Z,9.10
2019-01-02T10:10:43.529Z,8.90
2019-01-02T10:13:50.767Z,8.00
2019-01-02T10:16:59.296Z,8.20
2019-01-02T10:20:06.556Z,8.10
2019-01-02T10:23:15.024Z,8.60
2019-01-02T10:26:22.113Z,8.30
2019-01-02T10:29:29.326Z,8.53
2019-01-02T10:32:37.796Z,10.83
2019-01-02T10:35:44.964Z,9.03
2019-01-02T10:38:53.482Z,9.50
2019-01-02T10:42:01.980Z,9.00
2019-01-02T10:45:10.525Z,9.47
2019-01-02T10:48:17.725Z,9.07
2019-01-02T10:51:24.963Z,9.00
2019-01-02T10:54:32.451Z,8.60
2019-01-02T10:57:39.935Z,8.00
2019-01-02T11:00:47.089Z,8.57
2019-01-02T11:03:55.629Z,8.40
2019-01-02T11:07:04.154Z,8.33
2019-01-02T11:10:12.604Z,7.90
2019-01-02T11:13:20.031Z,8.00
2019-01-02T11:16:28.472Z,8.27
2019-01-02T11:19:35.689Z,8.67
2019-01-02T11:22:44.288Z,8.63
2019-01-02T11:25:51.568Z,8.10
2019-01-02T11:29:00.162Z,15.40
2019-01-02T11:32:07.269Z,7.80
2019-01-02T11:35:15.794Z,7.23
2019-01-02T11:38:24.280Z,7.80
2019-01-02T11:41:32.789Z,7.27
2019-01-02T11:44:40.004Z,7.93
2019-01-02T11:47:08.680Z,7.60
2019-01-02T11:49:37.335Z,7.17
2019-01-02T11:52:05.913Z,7.27
2019-01-02T11:54:34.512Z,7.63
2019-01-02T11:57:03.076Z,7.63
2019-01-02T11:59:31.732Z,7.67
2019-01-02T12:02:19.692Z,8.27
2019-01-02T12:04:48.192Z,7.47
2019-01-02T12:07:16.800Z,7.80
2019-01-02T12:09:45.294Z,7.70
2019-01-02T12:12:14.128Z,7.43
2019-01-02T12:14:42.775Z,8.03
2019-01-02T12:17:11.246Z,8.70
2019-01-02T12:19:39.824Z,7.90
2019-01-02T12:22:08.215Z,7.53
2019-01-02T12:24:36.643Z,7.30
2019-01-02T12:27:05.097Z,7.37
2019-01-02T12:29:33.591Z,7.83
2019-01-02T12:32:02.359Z,7.83
2019-01-02T12:34:30.875Z,7.63
2019-01-02T12:36:59.448Z,8.00
2019-01-02T12:39:28.083Z,7.47
2019-01-02T12:41:56.728Z,7.33
2019-01-02T12:44:25.419Z,6.63
2019-01-02T12:46:53.945Z,7.80
2019-01-02T12:49:22.567Z,7.37
2019-01-02T12:51:51.186Z,7.33
2019-01-02T12:54:19.856Z,7.40
2019-01-02T12:56:48.425Z,7.50
2019-01-02T12:59:56.909Z,8.90
2019-01-02T13:03:05.413Z,7.80
2019-01-02T13:06:13.959Z,7.80
2019-01-02T13:09:21.143Z,8.00
2019-01-02T13:12:28.458Z,8.20
2019-01-02T13:15:36.959Z,8.23
2019-01-02T13:18:44.159Z,8.60
2019-01-02T13:21:52.926Z,8.73
2019-01-02T13:25:00.199Z,7.93
2019-01-02T13:28:08.686Z,7.60
2019-01-02T13:31:17.142Z,8.40
2019-01-02T13:34:24.346Z,8.70
2019-01-02T13:37:33.154Z,8.63
2019-01-02T13:40:40.319Z,8.00
2019-01-02T13:43:48.866Z,9.23
2019-01-02T13:46:56.077Z,9.13
2019-01-02T13:50:03.302Z,8.70
2019-01-02T13:52:31.780Z,8.07
2019-01-02T13:55:40.228Z,8.57
2019-01-02T13:58:08.844Z,8.20
2019-01-02T14:00:37.360Z,8.90
2019-01-02T14:03:05.813Z,8.17
2019-01-02T14:06:14.339Z,8.50
2019-01-02T14:08:42.949Z,7.93
2019-01-02T14:11:11.498Z,8.40
2019-01-02T14:13:40.071Z,8.20
2019-01-02T14:16:08.568Z,7.70
2019-01-02T14:18:37.054Z,8.00
2019-01-02T14:21:05.633Z,7.80
2019-01-02T14:23:34.190Z,7.93
2019-01-02T14:26:02.733Z,7.60
2019-01-02T14:28:31.212Z,8.10
2019-01-02T14:30:59.714Z,8.10
2019-01-02T14:33:28.269Z,8.17
2019-01-02T14:35:56.715Z,8.70
2019-01-02T14:38:25.235Z,9.47
2019-01-02T14:40:53.791Z,8.73
2019-01-02T14:43:22.354Z,8.63
2019-01-02T14:45:50.948Z,8.00
2019-01-02T14:48:19.504Z,7.73
2019-01-02T14:50:48.054Z,8.50
2019-01-02T14:53:16.509Z,8.90
2019-01-02T14:55:45.671Z,8.63
2019-01-02T14:58:14.530Z,9.43
2019-01-02T15:00:43.107Z,9.63
2019-01-02T15:03:11.650Z,8.17
2019-01-02T15:05:40.580Z,9.07
2019-01-02T15:08:09.111Z,8.93
2019-01-02T15:10:37.632Z,8.57
2019-01-02T15:13:06.234Z,8.67
2019-01-02T15:15:34.762Z,7.30
2019-01-02T15:18:03.438Z,9.10
2019-01-02T15:20:31.985Z,8.30
2019-01-02T15:23:00.584Z,9.33
2019-01-02T15:25:29.466Z,8.70
2019-01-02T15:27:58.111Z,8.37
2019-01-02T15:30:26.548Z,8.30
2019-01-02T15:32:55.136Z,7.80
2019-01-02T15:35:23.706Z,8.40
2019-01-02T15:37:52.317Z,7.90
2019-01-02T15:40:21.170Z,8.00
2019-01-02T15:42:49.914Z,8.43
2019-01-02T15:45:18.465Z,8.17
2019-01-02T15:47:46.946Z,8.63
2019-01-02T15:50:15.490Z,8.33
2019-01-02T15:52:44.094Z,8.60
2019-01-02T15:55:12.662Z,12.63
2019-01-02T15:57:41.255Z,8.30
2019-01-02T16:00:49.755Z,8.20
2019-01-02T16:03:18.425Z,7.70
2019-01-02T16:05:47.064Z,8.03
2019-01-02T16:08:15.532Z,8.40
2019-01-02T16:10:44.554Z,8.30
2019-01-02T16:13:13.069Z,8.10
2019-01-02T16:15:41.580Z,7.80
2019-01-02T16:18:10.039Z,8.03
2019-01-02T16:20:38.500Z,8.00
2019-01-02T16:23:06.999Z,7.83
2019-01-02T16:25:35.850Z,8.03
2019-01-02T16:28:04.476Z,7.97
2019-01-02T16:30:33.019Z,8.30
2019-01-02T16:33:01.898Z,7.50
2019-01-02T16:35:30.470Z,8.30
2019-01-02T16:37:59.392Z,7.93
2019-01-02T16:40:28.032Z,7.47
2019-01-02T16:42:56.648Z,8.43
2019-01-02T16:45:25.398Z,7.17
2019-01-02T16:47:54.011Z,8.20
2019-01-02T16:50:22.715Z,7.60
2019-01-02T16:52:51.209Z,8.13
2019-01-02T16:55:19.861Z,7.80
2019-01-02T16:57:48.528Z,7.47
2019-01-02T17:00:17.242Z,7.77
2019-01-02T17:02:45.842Z,7.30
2019-01-02T17:05:15.140Z,7.67
2019-01-02T17:07:43.678Z,7.33
2019-01-02T17:10:52.305Z,7.37
2019-01-02T17:13:21.211Z,7.80
2019-01-02T17:15:49.757Z,7.50
2019-01-02T17:18:18.538Z,7.90
2019-01-02T17:20:47.265Z,7.73
2019-01-02T17:23:16.150Z,7.60
2019-01-02T17:25:44.726Z,8.00
2019-01-02T17:28:13.597Z,7.80
2019-01-02T17:30:42.250Z,8.50
2019-01-02T17:33:10.856Z,7.70
2019-01-02T17:35:39.462Z,7.70
2019-01-02T17:38:08.029Z,8.27
2019-01-02T17:40:36.504Z,8.07
2019-01-02T17:43:05.120Z,8.30
2019-01-02T17:45:33.761Z,7.70
2019-01-02T17:48:02.314Z,7.90
2019-01-02T17:50:30.970Z,8.00
2019-01-02T17:52:59.564Z,8.20
2019-01-02T17:55:28.363Z,7.93
2019-01-02T17:57:57.058Z,8.17
2019-01-02T18:00:25.600Z,8.37
2019-01-02T18:02:54.377Z,7.77
2019-01-02T18:05:23.010Z,8.70
2019-01-02T18:07:51.913Z,8.47
2019-01-02T18:10:20.438Z,10.97
2019-01-02T18:12:48.976Z,8.90
2019-01-02T18:15:17.793Z,8.20
2019-01-02T18:17:46.365Z,8.30
2019-01-02T18:20:15.053Z,8.20
2019-01-02T18:22:43.631Z,8.00
2019-01-02T18:25:12.211Z,8.40
2019-01-02T18:27:40.816Z,7.67
2019-01-02T18:30:49.284Z,8.20
2019-01-02T18:33:17.837Z,8.50
2019-01-02T18:35:46.489Z,7.87
2019-01-02T18:38:15.155Z,8.40
2019-01-02T18:40:43.700Z,8.37
2019-01-02T18:43:12.265Z,8.47
2019-01-02T18:45:40.815Z,8.63
2019-01-02T18:48:09.362Z,8.80
2019-01-02T18:50:37.825Z,8.40
2019-01-02T18:53:06.361Z,9.60
2019-01-02T18:55:34.898Z,8.00
2019-01-02T18:58:03.837Z,7.70
2019-01-02T19:00:32.423Z,7.80
2019-01-02T19:03:00.982Z,8.20
2019-01-02T19:05:29.483Z,8.30
2019-01-02T19:07:58.037Z,8.20
2019-01-02T19:10:26.669Z,8.10
2019-01-02T19:13:07.429Z,8.20
2019-01-02T19:15:25.390Z,8.13
2019-01-02T19:17:54.224Z,8.10
2019-01-02T19:20:22.704Z,8.53
2019-01-02T19:22:51.292Z,7.83
2019-01-02T19:25:19.852Z,8.50
2019-01-02T19:27:48.475Z,8.00
2019-01-02T19:30:16.939Z,8.53
2019-01-02T19:32:45.437Z,8.27
2019-01-02T19:35:13.959Z,8.50
2019-01-02T19:37:43.322Z,9.20
2019-01-02T19:40:11.930Z,9.30
2019-01-02T19:42:40.545Z,8.63
2019-01-02T19:45:49.106Z,8.67
2019-01-02T19:48:17.717Z,8.20
2019-01-02T19:50:46.189Z,8.87
2019-01-02T19:53:21.490Z,8.40
2019-01-02T19:55:50.111Z,8.40
2019-01-02T19:58:18.612Z,8.87
2019-01-02T20:00:47.131Z,8.63
2019-01-02T20:03:15.696Z,8.50
2019-01-02T20:05:44.287Z,8.50
2019-01-02T20:08:12.738Z,8.93
2019-01-02T20:10:41.197Z,8.47
2019-01-02T20:13:09.699Z,8.60
2019-01-02T20:15:38.207Z,8.67
2019-01-02T20:18:06.759Z,8.53
2019-01-02T20:20:35.302Z,8.70
2019-01-02T20:23:03.869Z,9.30
2019-01-02T20:25:32.459Z,10.10
2019-01-02T20:28:00.955Z,9.20
2019-01-02T20:30:29.543Z,9.00
2019-01-02T20:32:58.177Z,9.47
2019-01-02T20:35:26.730Z,9.53
2019-01-02T20:37:55.295Z,8.87
2019-01-02T20:40:23.944Z,9.10
2019-01-02T20:42:52.465Z,8.80
2019-01-02T20:45:21.114Z,9.27
2019-01-02T20:47:49.659Z,8.40
2019-01-02T20:50:18.350Z,8.77
2019-01-02T20:52:46.907Z,9.03
2019-01-02T20:55:15.517Z,9.10
2019-01-02T20:57:44.009Z,8.50
2019-01-02T21:00:12.990Z,9.10
2019-01-02T21:03:01.211Z,8.33
2019-01-02T21:05:29.751Z,9.50
2019-01-02T21:07:58.381Z,9.03
2019-01-02T21:10:26.985Z,9.60
2019-01-02T21:12:55.535Z,9.10
2019-01-02T21:15:24.114Z,9.40
2019-01-02T21:17:52.732Z,8.87
2019-01-02T21:20:21.218Z,9.00
2019-01-02T21:22:50.024Z,8.37
2019-01-02T21:25:18.598Z,9.10
2019-01-02T21:27:47.198Z,9.23
2019-01-02T21:30:15.786Z,9.10
2019-01-02T21:32:44.287Z,9.60
2019-01-02T21:35:12.831Z,8.60
2019-01-02T21:37:41.587Z,8.83
2019-01-02T21:40:10.123Z,15.80
2019-01-02T21:42:38.646Z,9.70
2019-01-02T21:45:07.296Z,8.73
2019-01-02T21:47:35.850Z,9.50
2019-01-02T21:50:44.326Z,8.73
2019-01-02T21:53:12.819Z,8.83
2019-01-02T21:55:41.398Z,8.77
2019-01-02T21:58:09.961Z,8.37
2019-01-02T22:00:38.617Z,8.80
2019-01-02T22:03:07.202Z,8.77
2019-01-02T22:05:35.741Z,9.00
2019-01-02T22:08:04.320Z,8.43
2019-01-02T22:10:33.008Z,8.50
2019-01-02T22:13:01.525Z,8.90
2019-01-02T22:15:30.143Z,8.47
2019-01-02T22:17:58.746Z,9.27
2019-01-02T22:20:27.293Z,9.20
2019-01-02T22:22:55.885Z,8.83
2019-01-02T22:25:24.420Z,8.70
2019-01-02T22:27:52.956Z,8.30
2019-01-02T22:30:21.561Z,8.87
2019-01-02T22:32:50.092Z,8.20
2019-01-02T22:35:18.616Z,8.30
2019-01-02T22:37:47.209Z,8.20
2019-01-02T22:40:15.691Z,8.20
2019-01-02T22:42:44.220Z,8.30
2019-01-02T22:45:12.782Z,7.83
2019-01-02T22:47:41.318Z,8.60
2019-01-02T22:50:10.215Z,9.10
2019-01-02T22:52:38.743Z,8.40
2019-01-02T22:55:07.318Z,8.60
2019-01-02T22:57:35.779Z,8.40
2019-01-02T23:00:44.262Z,9.03
2019-01-02T23:06:21.279Z,8.87
2019-01-02T23:14:33.367Z,8.10
2019-01-02T23:17:20.960Z,8.47
2019-01-02T23:20:08.630Z,8.23
2019-01-02T23:25:45.664Z,8.23
2019-01-02T23:28:33.248Z,8.87
2019-01-02T23:31:20.909Z,8.07
2019-01-02T23:36:57.667Z,8.97
2019-01-02T23:39:45.272Z,8.70
2019-01-02T23:42:32.941Z,7.97
2019-01-02T23:50:45.221Z,8.10
2019-01-02T23:53:32.829Z,8.77
2019-01-02T23:56:20.408Z,8.20
2019-01-02T23:59:08.097Z,9.50
